createdAt,value
2023-05-06T00:00:16.541Z,634.6154
2023-05-06T00:01:19.127Z,631.5385
2023-05-06T00:02:21.766Z,627.8461
2023-05-06T00:03:24.488Z,629.3846
2023-05-06T00:04:26.963Z,630.5385
2023-05-06T00:05:29.520Z,628.6154
2023-05-06T00:06:32.086Z,628.2308
2023-05-06T00:07:34.713Z,629.5385
2023-05-06T00:08:37.279Z,624.2308
2023-05-06T00:09:39.896Z,616.7692
2023-05-06T00:10:42.472Z,615.3077
2023-05-06T00:11:45.093Z,608.7692
2023-05-06T00:12:47.684Z,609.3077
2023-05-06T00:13:50.289Z,608.2308
2023-05-06T00:14:52.997Z,606.3077
2023-05-06T00:15:55.514Z,604.2308
2023-05-06T00:16:58.061Z,605.1539
2023-05-06T00:18:00.737Z,605.1539
2023-05-06T00:19:03.262Z,602.7692
2023-05-06T00:20:05.871Z,601.6154
2023-05-06T00:21:08.444Z,602.0000
2023-05-06T00:22:11.076Z,603.3077
2023-05-06T00:23:13.645Z,603.6154
2023-05-06T00:24:16.264Z,614.3846
2023-05-06T00:25:18.860Z,641.8461
2023-05-06T00:26:21.471Z,644.4615
2023-05-06T00:27:24.024Z,649.6923
2023-05-06T00:28:26.653Z,652.1539
2023-05-06T00:29:29.218Z,653.3077
2023-05-06T00:30:31.914Z,653.3846
2023-05-06T00:31:34.480Z,652.4615
2023-05-06T00:32:37.065Z,652.0000
2023-05-06T00:33:39.615Z,659.0769
2023-05-06T00:34:42.225Z,659.4615
2023-05-06T00:35:44.812Z,657.0000
2023-05-06T00:36:47.423Z,653.2308
2023-05-06T00:37:50.000Z,647.4615
2023-05-06T00:38:52.612Z,641.6923
2023-05-06T00:39:55.179Z,641.6154
2023-05-06T00:40:57.797Z,639.0769
2023-05-06T00:43:15.276Z,619.3571
2023-05-06T00:44:17.909Z,623.4615
2023-05-06T00:45:20.459Z,622.2308
2023-05-06T00:46:23.195Z,623.3077
2023-05-06T00:47:25.674Z,629.0000
2023-05-06T00:48:28.290Z,619.9231
2023-05-06T00:49:31.183Z,626.1539
2023-05-06T00:50:33.475Z,627.5385
2023-05-06T00:51:36.049Z,628.6154
2023-05-06T00:52:38.742Z,626.6154
2023-05-06T00:53:41.253Z,617.2308
2023-05-06T00:54:43.885Z,614.6154
2023-05-06T00:55:46.457Z,613.6923
2023-05-06T00:56:49.093Z,623.3077
2023-05-06T00:57:51.659Z,622.6154
2023-05-06T00:58:54.279Z,622.3077
2023-05-06T00:59:56.860Z,622.2308
2023-05-06T01:00:59.511Z,623.9231
2023-05-06T01:02:02.202Z,626.6923
2023-05-06T01:03:04.760Z,634.3846
2023-05-06T01:04:07.283Z,637.3077
2023-05-06T01:05:10.064Z,635.8461
2023-05-06T01:06:12.466Z,635.2308
2023-05-06T01:07:15.061Z,632.6154
2023-05-06T01:08:17.660Z,629.1539
2023-05-06T01:09:20.260Z,630.0000
2023-05-06T01:10:22.841Z,628.8461
2023-05-06T01:11:25.621Z,631.0000
2023-05-06T01:12:28.032Z,628.3077
2023-05-06T01:13:30.645Z,623.5385
2023-05-06T01:14:33.228Z,625.4615
2023-05-06T01:15:35.848Z,631.0000
2023-05-06T01:16:38.438Z,633.0000
2023-05-06T01:17:41.152Z,631.0000
2023-05-06T01:18:43.627Z,630.2308
2023-05-06T01:19:46.240Z,630.2308
2023-05-06T01:20:48.804Z,629.4615
2023-05-06T01:21:51.428Z,631.3077
2023-05-06T01:22:53.986Z,636.0000
2023-05-06T01:23:56.618Z,640.3077
2023-05-06T01:24:59.186Z,636.3846
2023-05-06T01:26:01.806Z,633.9231
2023-05-06T01:27:04.422Z,637.0000
2023-05-06T01:28:06.992Z,639.9231
2023-05-06T01:29:09.555Z,640.6923
2023-05-06T01:30:12.195Z,640.1539
2023-05-06T01:31:14.802Z,642.6923
2023-05-06T01:32:17.361Z,641.8461
2023-05-06T01:33:20.124Z,644.5385
2023-05-06T01:34:22.825Z,643.3077
2023-05-06T01:35:25.153Z,641.3077
2023-05-06T01:36:27.739Z,643.8461
2023-05-06T01:37:30.308Z,645.6154
2023-05-06T01:38:32.941Z,647.3846
2023-05-06T01:39:35.516Z,653.4615
2023-05-06T01:40:38.116Z,639.5385
2023-05-06T01:41:40.688Z,634.3846
2023-05-06T01:42:43.323Z,627.0000
2023-05-06T01:43:45.883Z,644.3846
2023-05-06T01:44:48.507Z,646.0769
2023-05-06T01:45:51.082Z,646.1539
2023-05-06T01:46:53.724Z,646.1539
2023-05-06T01:47:56.331Z,645.6154
2023-05-06T01:48:59.004Z,645.1539
2023-05-06T01:50:01.484Z,651.1539
2023-05-06T01:51:04.138Z,654.8461
2023-05-06T01:52:06.692Z,657.8461
2023-05-06T01:53:09.307Z,660.5385
2023-05-06T01:54:11.879Z,659.9231
2023-05-06T01:55:14.499Z,657.0769
2023-05-06T01:56:17.076Z,657.4615
2023-05-06T01:57:19.695Z,658.7692
2023-05-06T01:58:22.259Z,659.7692
2023-05-06T01:59:24.890Z,659.0769
2023-05-06T02:00:27.457Z,655.1539
2023-05-06T02:01:30.109Z,653.2308
2023-05-06T02:02:32.717Z,652.6923
2023-05-06T02:03:35.315Z,653.3846
2023-05-06T02:04:37.857Z,655.1539
2023-05-06T02:05:40.479Z,655.6154
2023-05-06T02:06:43.099Z,653.9231
2023-05-06T02:07:45.880Z,653.2308
2023-05-06T02:08:48.272Z,653.9231
2023-05-06T02:09:50.832Z,648.5385
2023-05-06T02:10:53.458Z,651.6923
2023-05-06T02:11:56.049Z,645.6923
2023-05-06T02:12:58.714Z,645.2308
2023-05-06T02:14:01.227Z,644.6154
2023-05-06T02:15:03.888Z,643.7692
2023-05-06T02:16:06.453Z,641.3077
2023-05-06T02:17:09.323Z,639.5385
2023-05-06T02:18:11.597Z,641.6154
2023-05-06T02:19:14.226Z,640.6923
2023-05-06T02:20:16.873Z,638.3077
2023-05-06T02:21:19.421Z,639.1539
2023-05-06T02:22:22.002Z,640.9231
2023-05-06T02:23:24.609Z,638.7692
2023-05-06T02:24:27.186Z,640.1539
2023-05-06T02:27:13.599Z,645.7857
2023-05-06T02:28:16.209Z,645.4615
2023-05-06T02:29:18.806Z,644.1539
2023-05-06T02:30:21.428Z,660.3077
2023-05-06T02:31:24.031Z,665.0000
2023-05-06T02:32:26.650Z,671.7692
2023-05-06T02:33:29.198Z,673.1539
2023-05-06T02:34:31.827Z,672.9231
2023-05-06T02:35:34.403Z,668.3846
2023-05-06T02:36:37.032Z,668.2308
2023-05-06T02:37:39.604Z,668.4615
2023-05-06T02:38:42.236Z,667.7692
2023-05-06T02:39:44.820Z,666.4615
2023-05-06T02:40:47.424Z,668.6923
2023-05-06T02:41:49.998Z,670.1539
2023-05-06T02:42:52.721Z,670.7692
2023-05-06T02:43:55.205Z,665.9231
2023-05-06T02:44:57.833Z,661.2308
2023-05-06T02:46:00.768Z,656.3077
2023-05-06T02:47:03.018Z,658.6154
2023-05-06T02:48:05.651Z,656.5385
2023-05-06T02:49:08.225Z,651.6154
2023-05-06T02:50:10.798Z,643.6154
2023-05-06T02:51:13.414Z,638.3846
2023-05-06T02:52:15.996Z,633.6154
2023-05-06T02:53:18.625Z,637.9231
2023-05-06T02:54:21.221Z,625.0769
2023-05-06T02:55:23.814Z,623.3077
2023-05-06T02:56:26.398Z,624.3077
2023-05-06T02:57:29.023Z,621.9231
2023-05-06T02:58:31.593Z,622.3077
2023-05-06T02:59:34.227Z,631.3846
2023-05-06T03:00:36.817Z,640.3077
2023-05-06T03:01:39.520Z,639.6923
2023-05-06T03:02:42.070Z,640.7692
2023-05-06T03:03:44.637Z,640.1539
2023-05-06T03:04:47.190Z,638.6154
2023-05-06T03:05:49.812Z,637.6154
2023-05-06T03:06:52.378Z,635.3077
2023-05-06T03:07:55.004Z,639.7692
2023-05-06T03:08:57.581Z,641.2308
2023-05-06T03:10:00.211Z,640.1539
2023-05-06T03:11:02.797Z,641.5385
2023-05-06T03:12:05.395Z,641.4615
2023-05-06T03:13:08.058Z,642.4615
2023-05-06T03:14:10.603Z,643.6154
2023-05-06T03:15:13.238Z,641.9231
2023-05-06T03:16:15.831Z,644.3077
2023-05-06T03:17:18.364Z,643.7692
2023-05-06T03:18:20.978Z,645.3077
2023-05-06T03:19:23.541Z,647.0000
2023-05-06T03:20:26.174Z,649.7692
2023-05-06T03:21:28.790Z,654.6154
2023-05-06T03:22:31.421Z,664.6154
2023-05-06T03:23:33.936Z,661.7692
2023-05-06T03:24:36.545Z,657.7692
2023-05-06T03:25:39.111Z,652.6154
2023-05-06T03:26:41.785Z,652.8461
2023-05-06T03:27:44.309Z,650.8461
2023-05-06T03:28:46.930Z,644.8461
2023-05-06T03:29:49.504Z,640.7692
2023-05-06T03:30:52.108Z,636.8461
2023-05-06T03:31:54.842Z,636.3846
2023-05-06T03:32:57.318Z,633.7692
2023-05-06T03:33:59.883Z,634.2308
2023-05-06T03:35:02.505Z,635.4615
2023-05-06T03:36:05.075Z,638.3077
2023-05-06T03:37:07.696Z,635.4615
2023-05-06T03:38:10.278Z,637.0769
2023-05-06T03:39:12.877Z,641.3846
2023-05-06T03:40:15.454Z,643.8461
2023-05-06T03:43:11.509Z,654.3571
2023-05-06T03:44:14.104Z,647.6923
2023-05-06T03:45:16.718Z,650.2308
2023-05-06T03:46:19.335Z,641.3846
2023-05-06T03:47:21.945Z,645.2308
2023-05-06T03:48:24.526Z,651.3846
2023-05-06T03:49:27.145Z,654.5385
2023-05-06T03:50:29.709Z,653.0000
2023-05-06T03:51:32.370Z,649.6923
2023-05-06T03:52:34.919Z,645.0769
2023-05-06T03:53:37.823Z,647.2308
2023-05-06T03:54:40.127Z,653.7692
2023-05-06T03:55:42.758Z,659.6154
2023-05-06T03:56:45.323Z,670.4615
2023-05-06T03:57:47.957Z,671.6923
2023-05-06T03:58:50.535Z,671.5385
2023-05-06T03:59:53.155Z,673.6923
2023-05-06T04:00:55.741Z,672.6923
2023-05-06T04:01:58.432Z,670.6154
2023-05-06T04:03:01.027Z,673.3077
2023-05-06T04:04:03.605Z,669.2308
2023-05-06T04:05:06.148Z,656.0000
2023-05-06T04:06:08.777Z,657.0000
2023-05-06T04:07:11.353Z,662.4615
2023-05-06T04:08:13.984Z,660.7692
2023-05-06T04:09:16.632Z,665.0769
2023-05-06T04:10:19.186Z,661.2308
2023-05-06T04:11:21.767Z,662.5385
2023-05-06T04:12:24.394Z,665.1539
2023-05-06T04:13:26.965Z,667.0769
2023-05-06T04:14:29.598Z,662.0000
2023-05-06T04:15:32.490Z,659.7692
2023-05-06T04:16:34.842Z,660.6154
2023-05-06T04:17:37.457Z,654.0769
2023-05-06T04:18:40.032Z,655.6923
2023-05-06T04:19:42.597Z,655.6154
2023-05-06T04:20:45.230Z,655.2308
2023-05-06T04:21:47.824Z,662.6154
2023-05-06T04:22:50.428Z,662.6154
2023-05-06T04:23:53.018Z,665.4615
2023-05-06T04:24:55.756Z,664.0769
2023-05-06T04:25:58.251Z,665.1539
2023-05-06T04:27:00.836Z,664.8461
2023-05-06T04:28:03.428Z,663.1539
2023-05-06T04:29:06.042Z,665.1539
2023-05-06T04:30:08.654Z,663.4615
2023-05-06T04:31:11.299Z,661.1539
2023-05-06T04:32:13.829Z,661.6154
2023-05-06T04:33:16.471Z,659.1539
2023-05-06T04:34:19.040Z,660.6923
2023-05-06T04:35:21.676Z,662.4615
2023-05-06T04:36:24.248Z,659.2308
2023-05-06T04:37:26.865Z,656.1539
2023-05-06T04:38:29.459Z,651.1539
2023-05-06T04:39:32.076Z,645.4615
2023-05-06T04:40:34.671Z,647.6923
2023-05-06T04:41:37.283Z,644.5385
2023-05-06T04:42:39.862Z,639.2308
2023-05-06T04:43:42.481Z,641.8461
2023-05-06T04:44:45.066Z,657.6154
2023-05-06T04:45:47.707Z,660.6923
2023-05-06T04:46:50.266Z,661.0769
2023-05-06T04:47:52.950Z,661.0769
2023-05-06T04:48:55.481Z,660.5385
2023-05-06T04:49:58.099Z,660.0000
2023-05-06T04:51:00.681Z,660.3846
2023-05-06T04:52:03.313Z,660.3077
2023-05-06T04:53:05.878Z,660.1539
2023-05-06T04:54:08.508Z,660.7692
2023-05-06T04:55:11.343Z,671.5385
2023-05-06T04:56:13.698Z,756.7692
2023-05-06T04:57:16.270Z,666.9231
2023-05-06T04:58:18.899Z,663.3846
2023-05-06T04:59:21.474Z,661.4615
2023-05-06T05:00:24.093Z,660.1539
2023-05-06T05:01:26.683Z,656.9231
2023-05-06T05:02:29.391Z,656.0769
2023-05-06T05:03:32.046Z,657.2308
2023-05-06T05:04:34.513Z,660.0769
2023-05-06T05:05:37.058Z,662.8461
2023-05-06T05:06:39.679Z,663.2308
2023-05-06T05:07:42.273Z,663.3077
2023-05-06T05:08:44.885Z,663.6154
2023-05-06T05:09:47.452Z,667.9231
2023-05-06T05:10:50.083Z,669.9231
2023-05-06T05:11:52.761Z,671.6154
2023-05-06T05:12:55.313Z,700.2308
2023-05-06T05:13:59.455Z,664.7692
2023-05-06T05:15:00.500Z,770.6154
2023-05-06T05:16:03.062Z,703.6923
2023-05-06T05:17:05.771Z,696.5385
2023-05-06T05:18:08.305Z,694.0000
2023-05-06T05:19:10.888Z,694.9231
2023-05-06T05:20:13.454Z,692.8461
2023-05-06T05:21:16.084Z,696.8461
2023-05-06T05:22:18.649Z,696.6154
2023-05-06T05:23:21.299Z,693.5385
2023-05-06T05:24:23.858Z,691.4615
2023-05-06T05:25:26.489Z,689.0000
2023-05-06T05:26:29.049Z,688.6154
2023-05-06T05:27:31.737Z,686.1539
2023-05-06T05:28:34.245Z,683.4615
2023-05-06T05:29:36.876Z,682.9231
2023-05-06T05:30:39.440Z,684.4615
2023-05-06T05:31:42.167Z,685.5385
2023-05-06T05:32:44.652Z,684.8461
2023-05-06T05:35:02.145Z,690.2857
2023-05-06T05:36:04.768Z,680.0769
2023-05-06T05:37:07.336Z,674.8461
2023-05-06T05:38:09.967Z,673.9231
2023-05-06T05:39:12.565Z,674.9231
2023-05-06T05:40:15.167Z,674.3846
2023-05-06T05:41:17.797Z,675.3077
2023-05-06T05:42:20.361Z,678.8461
2023-05-06T05:43:22.931Z,675.0000
2023-05-06T05:44:25.580Z,669.2308
2023-05-06T05:45:28.134Z,674.6923
2023-05-06T05:46:30.770Z,675.5385
2023-05-06T05:47:33.370Z,679.0000
2023-05-06T05:48:35.949Z,679.7692
2023-05-06T05:49:38.543Z,678.8461
2023-05-06T05:50:41.166Z,677.6154
2023-05-06T05:51:43.711Z,677.6154
2023-05-06T05:52:46.343Z,678.6923
2023-05-06T05:53:48.929Z,679.0000
2023-05-06T05:54:51.531Z,679.0000
2023-05-06T05:55:54.313Z,677.1539
2023-05-06T05:56:56.732Z,677.5385
2023-05-06T05:57:59.307Z,678.6154
2023-05-06T05:59:01.907Z,678.5385
2023-05-06T06:00:04.485Z,675.8461
2023-05-06T06:01:07.106Z,673.4615
2023-05-06T06:02:09.668Z,672.3846
2023-05-06T06:03:12.428Z,673.6154
2023-05-06T06:04:15.007Z,677.0000
2023-05-06T06:05:17.486Z,677.4615
2023-05-06T06:06:20.063Z,676.0769
2023-05-06T06:07:22.680Z,674.8461
2023-05-06T06:08:25.251Z,674.3846
2023-05-06T06:09:27.890Z,675.6923
2023-05-06T06:10:30.455Z,672.0769
2023-05-06T06:11:33.080Z,670.3846
2023-05-06T06:12:35.692Z,673.0769
2023-05-06T06:15:36.582Z,683.7143
2023-05-06T06:16:39.150Z,672.2308
2023-05-06T06:17:41.755Z,667.6923
2023-05-06T06:18:44.224Z,665.6923
2023-05-06T06:19:46.845Z,664.9231
2023-05-06T06:20:51.692Z,666.9231
2023-05-06T06:21:52.025Z,666.6923
2023-05-06T06:22:54.600Z,665.0000
2023-05-06T06:23:57.200Z,665.6923
2023-05-06T06:24:59.775Z,663.8461
2023-05-06T06:26:02.385Z,662.3077
2023-05-06T06:27:04.990Z,658.9231
2023-05-06T06:28:07.599Z,658.5385
2023-05-06T06:29:10.158Z,660.0000
2023-05-06T06:30:12.759Z,664.1539
2023-05-06T06:31:15.520Z,662.7692
2023-05-06T06:32:17.938Z,667.8461
2023-05-06T06:33:20.501Z,664.3846
2023-05-06T06:34:23.126Z,667.6923
2023-05-06T06:35:25.696Z,662.2308
2023-05-06T06:36:28.298Z,659.6923
2023-05-06T06:37:30.859Z,654.6923
2023-05-06T06:38:33.513Z,655.0769
2023-05-06T06:39:36.042Z,651.4615
2023-05-06T06:40:38.659Z,650.6154
2023-05-06T06:41:41.217Z,648.6154
2023-05-06T06:42:43.841Z,651.3077
2023-05-06T06:43:46.410Z,652.2308
2023-05-06T06:44:49.017Z,655.5385
2023-05-06T06:45:51.622Z,651.3846
2023-05-06T06:48:04.443Z,630.6429
2023-05-06T06:49:06.719Z,629.3077
2023-05-06T06:50:09.341Z,624.0000
2023-05-06T06:51:11.902Z,629.6154
2023-05-06T06:52:14.519Z,633.6923
2023-05-06T06:53:17.076Z,632.2308
2023-05-06T06:54:19.709Z,635.9231
2023-05-06T06:55:22.274Z,640.4615
2023-05-06T06:56:24.885Z,641.1539
2023-05-06T06:57:27.456Z,638.5385
2023-05-06T06:58:30.060Z,637.4615
2023-05-06T06:59:32.654Z,634.0769
2023-05-06T07:00:35.266Z,638.3077
2023-05-06T07:01:38.044Z,644.1539
2023-05-06T07:02:40.487Z,642.2308
2023-05-06T07:03:43.181Z,641.3077
2023-05-06T07:04:45.661Z,648.0000
2023-05-06T07:05:48.190Z,655.0000
2023-05-06T07:06:50.807Z,650.6923
2023-05-06T07:07:53.381Z,649.3077
2023-05-06T07:08:56.003Z,641.8461
2023-05-06T07:09:58.553Z,645.6154
2023-05-06T07:11:01.164Z,637.3846
2023-05-06T07:12:03.737Z,638.9231
2023-05-06T07:13:06.401Z,638.3077
2023-05-06T07:14:08.922Z,638.6923
2023-05-06T07:15:11.812Z,631.5385
2023-05-06T07:16:14.122Z,633.0769
2023-05-06T07:17:16.798Z,638.6923
2023-05-06T07:18:19.292Z,633.6923
2023-05-06T07:19:21.896Z,631.6923
2023-05-06T07:20:24.470Z,629.2308
2023-05-06T07:21:27.075Z,625.0769
2023-05-06T07:22:29.640Z,631.5385
2023-05-06T07:23:32.407Z,631.0000
2023-05-06T07:24:34.845Z,624.5385
2023-05-06T07:25:37.461Z,618.8461
2023-05-06T07:26:40.027Z,623.2308
2023-05-06T07:27:42.635Z,631.0000
2023-05-06T07:28:45.189Z,620.1539
2023-05-06T07:29:47.808Z,616.7692
2023-05-06T07:30:50.414Z,616.9231
2023-05-06T07:31:52.990Z,613.4615
2023-05-06T07:32:55.590Z,615.6923
2023-05-06T07:33:58.159Z,616.0000
2023-05-06T07:35:00.823Z,609.1539
2023-05-06T07:36:03.392Z,618.1539
2023-05-06T07:37:05.914Z,623.2308
2023-05-06T07:38:08.530Z,622.9231
2023-05-06T07:39:11.102Z,616.7692
2023-05-06T07:40:13.722Z,616.0769
2023-05-06T07:41:16.293Z,621.8461
2023-05-06T07:42:18.881Z,627.0000
2023-05-06T07:43:21.446Z,628.3846
2023-05-06T07:44:24.063Z,621.6154
2023-05-06T07:45:26.631Z,617.4615
2023-05-06T07:46:29.311Z,620.8461
2023-05-06T07:47:32.007Z,619.8461
2023-05-06T07:48:34.414Z,615.3846
2023-05-06T07:49:36.995Z,618.8461
2023-05-06T07:50:39.733Z,610.8461
2023-05-06T07:51:42.164Z,614.6923
2023-05-06T07:52:44.830Z,610.0769
2023-05-06T07:53:47.528Z,610.0769
2023-05-06T07:54:49.947Z,616.7692
2023-05-06T07:55:52.512Z,620.0000
2023-05-06T07:56:55.120Z,620.6154
2023-05-06T07:57:57.683Z,618.5385
2023-05-06T07:59:00.296Z,614.7692
2023-05-06T08:00:02.867Z,617.3077
2023-05-06T08:01:05.472Z,620.9231
2023-05-06T08:02:08.097Z,621.0769
2023-05-06T08:03:10.844Z,623.6923
2023-05-06T08:04:13.312Z,635.7692
2023-05-06T08:05:15.865Z,650.5385
2023-05-06T08:06:18.400Z,652.3846
2023-05-06T08:07:21.013Z,642.3077
2023-05-06T08:08:23.578Z,638.2308
2023-05-06T08:09:26.177Z,638.6154
2023-05-06T08:10:29.001Z,636.0000
2023-05-06T08:11:31.350Z,629.3846
2023-05-06T08:12:33.926Z,631.2308
2023-05-06T08:13:36.542Z,627.7692
2023-05-06T08:14:39.103Z,619.3846
2023-05-06T08:15:41.713Z,623.7692
2023-05-06T08:16:44.348Z,618.6154
2023-05-06T08:17:46.918Z,619.4615
2023-05-06T08:18:49.452Z,619.8461
2023-05-06T08:19:52.073Z,621.3846
2023-05-06T08:20:54.640Z,623.0000
2023-05-06T08:21:57.334Z,621.8461
2023-05-06T08:22:59.800Z,615.3077
2023-05-06T08:24:02.407Z,615.6154
2023-05-06T08:25:04.987Z,614.5385
2023-05-06T08:26:07.590Z,616.1539
2023-05-06T08:27:10.152Z,608.7692
2023-05-06T08:28:12.757Z,606.6154
2023-05-06T08:29:15.320Z,617.3077
2023-05-06T08:30:17.936Z,614.9231
2023-05-06T08:31:20.524Z,616.6154
2023-05-06T08:32:23.224Z,617.7692
2023-05-06T08:33:25.692Z,618.0000
2023-05-06T08:34:28.288Z,616.6923
2023-05-06T08:35:30.847Z,614.0000
2023-05-06T08:36:33.486Z,614.0000
2023-05-06T08:37:36.110Z,614.7692
2023-05-06T08:40:27.126Z,617.6429
2023-05-06T08:41:29.691Z,615.0769
2023-05-06T08:42:32.304Z,610.7692
2023-05-06T08:43:34.877Z,607.0769
2023-05-06T08:46:11.563Z,597.5000
2023-05-06T08:47:14.092Z,576.3077
2023-05-06T08:48:16.697Z,585.6154
2023-05-06T08:49:19.265Z,587.1539
2023-05-06T08:50:21.876Z,584.6923
2023-05-06T08:51:26.072Z,581.7692
2023-05-06T08:52:27.088Z,586.7692
2023-05-06T08:53:29.866Z,591.5385
2023-05-06T08:54:32.226Z,589.5385
2023-05-06T08:55:34.910Z,585.0000
2023-05-06T08:56:37.405Z,590.0769
2023-05-06T08:57:39.981Z,587.5385
2023-05-06T08:58:42.584Z,583.3846
2023-05-06T08:59:45.163Z,585.0769
2023-05-06T09:00:47.763Z,588.6923
2023-05-06T09:01:50.301Z,579.6154
2023-05-06T09:02:53.019Z,586.8461
2023-05-06T09:03:55.487Z,589.9231
2023-05-06T09:04:58.125Z,590.1539
2023-05-06T09:06:00.645Z,592.4615
2023-05-06T09:07:03.255Z,588.3077
2023-05-06T09:08:05.838Z,594.3846
2023-05-06T09:09:08.479Z,591.8461
2023-05-06T09:10:11.185Z,597.5385
2023-05-06T09:11:13.605Z,592.0769
2023-05-06T09:12:16.154Z,594.7692
2023-05-06T09:13:18.869Z,592.3077
2023-05-06T09:14:21.324Z,588.5385
2023-05-06T09:15:23.938Z,590.2308
2023-05-06T09:16:26.548Z,587.5385
2023-05-06T09:17:29.112Z,591.3846
2023-05-06T09:18:31.675Z,595.6154
2023-05-06T09:19:34.295Z,595.6154
2023-05-06T09:20:36.947Z,594.6154
2023-05-06T09:21:39.465Z,591.6154
2023-05-06T09:22:42.034Z,585.1539
2023-05-06T09:23:44.664Z,589.4615
2023-05-06T09:24:47.279Z,591.1539
2023-05-06T09:25:49.879Z,590.3846
2023-05-06T09:26:52.363Z,580.3077
2023-05-06T09:27:54.975Z,582.5385
2023-05-06T09:28:57.542Z,585.1539
2023-05-06T09:30:00.263Z,585.3077
2023-05-06T09:31:02.741Z,585.6154
2023-05-06T09:32:05.311Z,587.3077
2023-05-06T09:33:07.910Z,586.0769
2023-05-06T09:34:10.596Z,588.6923
2023-05-06T09:35:13.229Z,586.4615
2023-05-06T09:37:30.368Z,588.5000
2023-05-06T09:38:32.986Z,587.3846
2023-05-06T09:39:35.546Z,586.4615
2023-05-06T09:40:38.228Z,585.1539
2023-05-06T09:41:40.734Z,577.2308
2023-05-06T09:42:43.337Z,585.1539
2023-05-06T09:43:45.944Z,585.3077
2023-05-06T09:44:48.522Z,579.0769
2023-05-06T09:45:51.124Z,578.5385
2023-05-06T09:46:53.686Z,583.0769
2023-05-06T09:47:56.334Z,586.9231
2023-05-06T09:48:58.894Z,586.9231
2023-05-06T09:50:01.483Z,589.0769
2023-05-06T09:51:04.059Z,591.1539
2023-05-06T09:52:06.630Z,592.0769
2023-05-06T09:53:09.226Z,595.3077
2023-05-06T09:54:11.792Z,597.0769
2023-05-06T09:55:14.746Z,596.3846
2023-05-06T09:56:17.181Z,595.4615
2023-05-06T09:57:19.580Z,597.2308
2023-05-06T09:58:22.139Z,595.0769
2023-05-06T09:59:24.757Z,594.8461
2023-05-06T10:00:27.327Z,594.7692
2023-05-06T10:01:36.893Z,591.5385
2023-05-06T10:02:32.654Z,590.0000
2023-05-06T10:03:35.223Z,583.0000
2023-05-06T10:04:37.934Z,582.6923
2023-05-06T10:05:40.276Z,581.9231
2023-05-06T10:06:42.826Z,582.3846
2023-05-06T10:07:45.443Z,579.4615
2023-05-06T10:08:47.994Z,579.0769
2023-05-06T10:09:50.609Z,590.6923
2023-05-06T10:10:53.153Z,589.0769
2023-05-06T10:11:55.894Z,578.3846
2023-05-06T10:12:58.372Z,569.9231
2023-05-06T10:14:00.949Z,577.2308
2023-05-06T10:15:03.511Z,580.2308
2023-05-06T10:16:06.143Z,579.6154
2023-05-06T10:17:08.960Z,581.1539
2023-05-06T10:18:11.295Z,587.9231
2023-05-06T10:19:13.804Z,580.7692
2023-05-06T10:20:16.457Z,576.4615
2023-05-06T10:21:18.978Z,577.6154
2023-05-06T10:22:21.571Z,576.8461
2023-05-06T10:23:24.131Z,582.0000
2023-05-06T10:24:26.740Z,582.3077
2023-05-06T10:25:29.305Z,579.7692
2023-05-06T10:26:31.898Z,575.8461
2023-05-06T10:27:34.476Z,579.3077
2023-05-06T10:28:37.110Z,581.2308
2023-05-06T10:29:39.610Z,586.4615
2023-05-06T10:30:42.238Z,589.3846
2023-05-06T10:31:44.819Z,581.1539
2023-05-06T10:32:47.399Z,590.1539
2023-05-06T10:33:49.959Z,580.7692
2023-05-06T10:34:52.540Z,582.0000
2023-05-06T10:35:55.096Z,588.1539
2023-05-06T10:36:57.843Z,590.2308
2023-05-06T10:38:00.269Z,586.0000
2023-05-06T10:39:02.870Z,580.2308
2023-05-06T10:40:05.433Z,584.6923
2023-05-06T10:41:08.032Z,587.0769
2023-05-06T10:42:10.589Z,586.3077
2023-05-06T10:43:13.257Z,582.3846
2023-05-06T10:44:15.752Z,575.0000
2023-05-06T10:45:18.602Z,578.4615
2023-05-06T10:46:20.924Z,582.3846
2023-05-06T10:47:23.575Z,579.5385
2023-05-06T10:48:26.088Z,576.0769
2023-05-06T10:49:28.685Z,578.4615
2023-05-06T10:50:31.237Z,582.4615
2023-05-06T10:51:33.859Z,574.3077
2023-05-06T10:52:36.423Z,571.3077
2023-05-06T10:53:39.026Z,576.7692
2023-05-06T10:54:41.564Z,571.0769
2023-05-06T10:55:44.174Z,577.3077
2023-05-06T10:56:46.744Z,574.0000
2023-05-06T10:57:49.349Z,579.2308
2023-05-06T10:58:51.966Z,581.9231
2023-05-06T10:59:54.512Z,575.5385
2023-05-06T11:00:57.076Z,577.4615
2023-05-06T11:01:59.839Z,578.1539
2023-05-06T11:03:02.412Z,571.1539
2023-05-06T11:04:04.835Z,573.1539
2023-05-06T11:05:07.370Z,577.1539
2023-05-06T11:06:09.972Z,581.9231
2023-05-06T11:07:12.545Z,573.5385
2023-05-06T11:08:15.131Z,577.6923
2023-05-06T11:09:17.754Z,581.8461
2023-05-06T11:10:20.298Z,580.5385
2023-05-06T11:11:22.856Z,581.2308
2023-05-06T11:12:25.446Z,581.2308
2023-05-06T11:13:28.219Z,577.1539
2023-05-06T11:16:23.829Z,577.8571
2023-05-06T11:17:26.446Z,578.1539
2023-05-06T11:18:28.982Z,579.2308
2023-05-06T11:19:31.612Z,585.8461
2023-05-06T11:22:12.954Z,582.2857
2023-05-06T11:23:15.548Z,581.6923
2023-05-06T11:25:32.836Z,578.3571
2023-05-06T11:26:35.437Z,582.6923
2023-05-06T11:27:38.005Z,581.3077
2023-05-06T11:28:40.610Z,578.0000
2023-05-06T11:29:43.179Z,578.5385
2023-05-06T11:30:45.817Z,580.3077
2023-05-06T11:31:48.418Z,581.0769
2023-05-06T11:32:51.062Z,579.1539
2023-05-06T11:33:53.540Z,573.9231
2023-05-06T11:34:56.136Z,575.0000
2023-05-06T11:35:58.692Z,577.9231
2023-05-06T11:37:01.302Z,576.7692
2023-05-06T11:38:03.908Z,569.4615
2023-05-06T11:39:06.460Z,569.1539
2023-05-06T11:40:09.177Z,576.0769
2023-05-06T11:41:11.629Z,579.8461
2023-05-06T11:42:14.190Z,577.0000
2023-05-06T11:43:16.846Z,578.6154
2023-05-06T11:44:19.362Z,574.0769
2023-05-06T11:45:21.975Z,574.6154
2023-05-06T11:46:24.607Z,572.0769
2023-05-06T11:47:27.222Z,564.6154
2023-05-06T11:48:29.689Z,566.0769
2023-05-06T11:49:32.299Z,564.7692
2023-05-06T11:50:34.859Z,571.4615
2023-05-06T11:51:37.463Z,566.8461
2023-05-06T11:52:40.045Z,561.3077
2023-05-06T11:53:42.611Z,564.7692
2023-05-06T11:54:45.214Z,564.6923
2023-05-06T11:55:47.775Z,560.8461
2023-05-06T11:56:50.333Z,564.6923
2023-05-06T11:57:52.934Z,568.3846
2023-05-06T11:58:55.492Z,570.5385
2023-05-06T11:59:58.109Z,568.8461
2023-05-06T12:01:00.673Z,575.3846
2023-05-06T12:02:03.282Z,570.4615
2023-05-06T12:03:05.963Z,574.0769
2023-05-06T12:04:08.676Z,575.5385
2023-05-06T12:05:11.002Z,572.7692
2023-05-06T12:06:13.616Z,570.7692
2023-05-06T12:07:16.176Z,574.1539
2023-05-06T12:08:26.821Z,572.0000
2023-05-06T12:09:21.327Z,570.6923
2023-05-06T12:10:23.923Z,570.9231
2023-05-06T12:11:26.483Z,573.2308
2023-05-06T12:12:29.091Z,570.6923
2023-05-06T12:13:31.653Z,570.0769
2023-05-06T12:14:34.255Z,569.3077
2023-05-06T12:15:36.814Z,568.3077
2023-05-06T12:16:39.434Z,568.8461
2023-05-06T12:17:41.992Z,569.4615
2023-05-06T12:18:44.652Z,572.7692
2023-05-06T12:19:47.198Z,573.9231
2023-05-06T12:20:49.740Z,570.3077
2023-05-06T12:21:52.307Z,570.7692
2023-05-06T12:22:55.509Z,572.8461
2023-05-06T12:23:57.492Z,576.1539
2023-05-06T12:25:00.093Z,574.6154
2023-05-06T12:26:02.636Z,573.4615
2023-05-06T12:27:05.239Z,570.6923
2023-05-06T12:28:07.791Z,569.9231
2023-05-06T12:29:10.398Z,570.6923
2023-05-06T12:30:13.179Z,572.8461
2023-05-06T12:31:15.669Z,571.6154
2023-05-06T12:32:18.116Z,574.1539
2023-05-06T12:33:20.716Z,569.0769